sensor_id;sensor_type;location;lat;lon;timestamp;P1;durP1;ratioP1;P2;durP2;ratioP2
595;SDS011;19946;49.306;11.350;2023-08-21T00:02:46;0.10;;;0.10;;
595;SDS011;19946;49.306;11.350;2023-08-21T00:05:46;0.00;;;0.00;;
595;SDS011;19946;49.306;11.350;2023-08-21T00:08:46;0.17;;;0.17;;
595;SDS011;19946;49.306;11.350;2023-08-21T00:11:47;0.10;;;0.10;;
595;SDS011;19946;49.306;11.350;2023-08-21T00:14:47;0.00;;;0.00;;
595;SDS011;19946;49.306;11.350;2023-08-21T00:17:47;0.00;;;0.00;;
595;SDS011;19946;49.306;11.350;2023-08-21T00:20:47;0.00;;;0.00;;
595;SDS011;19946;49.306;11.350;2023-08-21T00:23:48;0.00;;;0.00;;
595;SDS011;19946;49.306;11.350;2023-08-21T00:26:48;0.10;;;0.10;;
595;SDS011;19946;49.306;11.350;2023-08-21T00:29:48;0.10;;;0.10;;
595;SDS011;19946;49.306;11.350;2023-08-21T00:32:49;0.00;;;0.00;;
595;SDS011;19946;49.306;11.350;2023-08-21T00:35:49;0.20;;;0.20;;
595;SDS011;19946;49.306;11.350;2023-08-21T00:38:50;0.00;;;0.00;;
595;SDS011;19946;49.306;11.350;2023-08-21T00:41:50;0.00;;;0.00;;
595;SDS011;19946;49.306;11.350;2023-08-21T00:44:50;0.00;;;0.00;;
595;SDS011;19946;49.306;11.350;2023-08-21T00:47:51;0.00;;;0.00;;
595;SDS011;19946;49.306;11.350;2023-08-21T00:50:52;0.00;;;0.00;;
595;SDS011;19946;49.306;11.350;2023-08-21T00:53:52;0.10;;;0.10;;
595;SDS011;19946;49.306;11.350;2023-08-21T00:56:53;0.10;;;0.10;;
595;SDS011;19946;49.306;11.350;2023-08-21T00:59:53;0.10;;;0.10;;
595;SDS011;19946;49.306;11.350;2023-08-21T01:02:54;0.00;;;0.00;;
595;SDS011;19946;49.306;11.350;2023-08-21T01:05:54;0.00;;;0.00;;
595;SDS011;19946;49.306;11.350;2023-08-21T01:15:16;0.00;;;0.00;;
595;SDS011;19946;49.306;11.350;2023-08-21T01:18:16;0.00;;;0.00;;
595;SDS011;19946;49.306;11.350;2023-08-21T01:21:18;0.00;;;0.00;;
595;SDS011;19946;49.306;11.350;2023-08-21T01:24:19;0.00;;;0.00;;
595;SDS011;19946;49.306;11.350;2023-08-21T01:27:20;0.00;;;0.00;;
595;SDS011;19946;49.306;11.350;2023-08-21T01:30:21;0.00;;;0.00;;
595;SDS011;19946;49.306;11.350;2023-08-21T01:33:22;0.00;;;0.00;;
595;SDS011;19946;49.306;11.350;2023-08-21T01:36:24;0.00;;;0.00;;
595;SDS011;19946;49.306;11.350;2023-08-21T01:39:25;0.00;;;0.00;;
595;SDS011;19946;49.306;11.350;2023-08-21T01:42:26;0.00;;;0.00;;
595;SDS011;19946;49.306;11.350;2023-08-21T01:45:27;0.00;;;0.00;;
595;SDS011;19946;49.306;11.350;2023-08-21T01:48:27;0.10;;;0.10;;
595;SDS011;19946;49.306;11.350;2023-08-21T01:51:28;0.10;;;0.10;;
595;SDS011;19946;49.306;11.350;2023-08-21T01:54:28;0.00;;;0.00;;
595;SDS011;19946;49.306;11.350;2023-08-21T01:57:28;0.00;;;0.00;;
595;SDS011;19946;49.306;11.350;2023-08-21T02:00:29;0.00;;;0.00;;
595;SDS011;19946;49.306;11.350;2023-08-21T02:03:29;0.10;;;0.10;;
595;SDS011;19946;49.306;11.350;2023-08-21T02:06:30;0.00;;;0.00;;
595;SDS011;19946;49.306;11.350;2023-08-21T02:09:31;0.00;;;0.00;;
595;SDS011;19946;49.306;11.350;2023-08-21T02:12:31;0.00;;;0.00;;
595;SDS011;19946;49.306;11.350;2023-08-21T02:15:31;0.00;;;0.00;;
595;SDS011;19946;49.306;11.350;2023-08-21T02:18:32;0.00;;;0.00;;
595;SDS011;19946;49.306;11.350;2023-08-21T02:21:34;0.00;;;0.00;;
595;SDS011;19946;49.306;11.350;2023-08-21T02:24:34;0.00;;;0.00;;
595;SDS011;19946;49.306;11.350;2023-08-21T02:27:35;0.10;;;0.10;;
595;SDS011;19946;49.306;11.350;2023-08-21T02:30:35;0.10;;;0.10;;
595;SDS011;19946;49.306;11.350;2023-08-21T02:33:35;0.10;;;0.10;;
595;SDS011;19946;49.306;11.350;2023-08-21T02:36:35;0.03;;;0.03;;
595;SDS011;19946;49.306;11.350;2023-08-21T02:39:36;0.10;;;0.10;;
595;SDS011;19946;49.306;11.350;2023-08-21T02:42:36;0.10;;;0.10;;
595;SDS011;19946;49.306;11.350;2023-08-21T02:45:36;0.10;;;0.10;;
595;SDS011;19946;49.306;11.350;2023-08-21T02:48:37;0.10;;;0.10;;
595;SDS011;19946;49.306;11.350;2023-08-21T02:51:37;0.10;;;0.10;;
595;SDS011;19946;49.306;11.350;2023-08-21T02:54:38;0.10;;;0.10;;
595;SDS011;19946;49.306;11.350;2023-08-21T02:57:38;0.10;;;0.10;;
595;SDS011;19946;49.306;11.350;2023-08-21T03:00:38;0.10;;;0.10;;
595;SDS011;19946;49.306;11.350;2023-08-21T03:03:39;0.10;;;0.10;;
595;SDS011;19946;49.306;11.350;2023-08-21T03:06:39;0.10;;;0.10;;
595;SDS011;19946;49.306;11.350;2023-08-21T03:09:40;0.10;;;0.10;;
595;SDS011;19946;49.306;11.350;2023-08-21T03:12:40;0.10;;;0.10;;
595;SDS011;19946;49.306;11.350;2023-08-21T03:15:40;0.10;;;0.10;;
595;SDS011;19946;49.306;11.350;2023-08-21T03:18:53;0.10;;;0.10;;
595;SDS011;19946;49.306;11.350;2023-08-21T03:21:59;0.10;;;0.10;;
595;SDS011;19946;49.306;11.350;2023-08-21T03:24:59;0.10;;;0.10;;
595;SDS011;19946;49.306;11.350;2023-08-21T03:28:00;0.10;;;0.10;;
595;SDS011;19946;49.306;11.350;2023-08-21T03:31:01;0.10;;;0.10;;
595;SDS011;19946;49.306;11.350;2023-08-21T03:34:03;0.10;;;0.10;;
595;SDS011;19946;49.306;11.350;2023-08-21T03:37:04;0.00;;;0.00;;
595;SDS011;19946;49.306;11.350;2023-08-21T03:40:06;0.00;;;0.00;;
595;SDS011;19946;49.306;11.350;2023-08-21T03:43:07;0.00;;;0.00;;
595;SDS011;19946;49.306;11.350;2023-08-21T03:46:08;0.00;;;0.00;;
595;SDS011;19946;49.306;11.350;2023-08-21T03:49:08;0.00;;;0.00;;
595;SDS011;19946;49.306;11.350;2023-08-21T03:52:09;0.00;;;0.00;;
595;SDS011;19946;49.306;11.350;2023-08-21T03:55:09;0.10;;;0.10;;
595;SDS011;19946;49.306;11.350;2023-08-21T03:58:10;0.10;;;0.10;;
595;SDS011;19946;49.306;11.350;2023-08-21T04:01:10;0.10;;;0.10;;
595;SDS011;19946;49.306;11.350;2023-08-21T04:04:10;0.10;;;0.10;;
595;SDS011;19946;49.306;11.350;2023-08-21T04:07:11;0.07;;;0.07;;
595;SDS011;19946;49.306;11.350;2023-08-21T04:10:12;0.10;;;0.10;;
595;SDS011;19946;49.306;11.350;2023-08-21T04:13:13;0.00;;;0.00;;
595;SDS011;19946;49.306;11.350;2023-08-21T04:16:14;0.10;;;0.10;;
595;SDS011;19946;49.306;11.350;2023-08-21T04:19:16;0.10;;;0.10;;
595;SDS011;19946;49.306;11.350;2023-08-21T04:22:16;0.20;;;0.20;;
595;SDS011;19946;49.306;11.350;2023-08-21T04:25:16;0.13;;;0.13;;
595;SDS011;19946;49.306;11.350;2023-08-21T04:28:17;0.10;;;0.10;;
595;SDS011;19946;49.306;11.350;2023-08-21T04:31:17;0.10;;;0.10;;
595;SDS011;19946;49.306;11.350;2023-08-21T04:34:21;0.10;;;0.10;;
595;SDS011;19946;49.306;11.350;2023-08-21T04:37:22;0.10;;;0.10;;
595;SDS011;19946;49.306;11.350;2023-08-21T04:40:24;0.10;;;0.10;;
595;SDS011;19946;49.306;11.350;2023-08-21T04:43:25;0.10;;;0.10;;
595;SDS011;19946;49.306;11.350;2023-08-21T04:46:25;0.00;;;0.00;;
595;SDS011;19946;49.306;11.350;2023-08-21T04:49:26;0.10;;;0.10;;
595;SDS011;19946;49.306;11.350;2023-08-21T04:52:26;0.00;;;0.00;;
595;SDS011;19946;49.306;11.350;2023-08-21T04:55:27;0.10;;;0.10;;
595;SDS011;19946;49.306;11.350;2023-08-21T04:58:29;0.10;;;0.10;;
595;SDS011;19946;49.306;11.350;2023-08-21T05:01:30;0.10;;;0.10;;
595;SDS011;19946;49.306;11.350;2023-08-21T05:04:33;0.10;;;0.10;;
595;SDS011;19946;49.306;11.350;2023-08-21T05:07:36;0.10;;;0.10;;
595;SDS011;19946;49.306;11.350;2023-08-21T05:10:37;0.20;;;0.20;;
595;SDS011;19946;49.306;11.350;2023-08-21T05:13:38;0.23;;;0.23;;
595;SDS011;19946;49.306;11.350;2023-08-21T05:16:41;0.30;;;0.30;;
595;SDS011;19946;49.306;11.350;2023-08-21T05:19:42;0.30;;;0.30;;
595;SDS011;19946;49.306;11.350;2023-08-21T05:22:42;0.27;;;0.27;;
595;SDS011;19946;49.306;11.350;2023-08-21T05:25:44;0.37;;;0.37;;
595;SDS011;19946;49.306;11.350;2023-08-21T05:28:45;0.20;;;0.20;;
595;SDS011;19946;49.306;11.350;2023-08-21T05:31:46;0.20;;;0.20;;
595;SDS011;19946;49.306;11.350;2023-08-21T05:34:46;0.13;;;0.13;;
595;SDS011;19946;49.306;11.350;2023-08-21T05:37:46;0.20;;;0.20;;
595;SDS011;19946;49.306;11.350;2023-08-21T05:40:47;0.30;;;0.30;;
595;SDS011;19946;49.306;11.350;2023-08-21T05:43:48;0.30;;;0.30;;
595;SDS011;19946;49.306;11.350;2023-08-21T05:46:49;0.20;;;0.20;;
595;SDS011;19946;49.306;11.350;2023-08-21T05:49:51;0.20;;;0.20;;
595;SDS011;19946;49.306;11.350;2023-08-21T05:52:52;0.30;;;0.30;;
595;SDS011;19946;49.306;11.350;2023-08-21T05:55:54;0.50;;;0.50;;
595;SDS011;19946;49.306;11.350;2023-08-21T05:58:54;0.50;;;0.50;;
595;SDS011;19946;49.306;11.350;2023-08-21T06:01:58;0.70;;;0.70;;
595;SDS011;19946;49.306;11.350;2023-08-21T06:04:59;0.90;;;0.90;;
595;SDS011;19946;49.306;11.350;2023-08-21T06:08:00;0.70;;;0.70;;
595;SDS011;19946;49.306;11.350;2023-08-21T06:11:01;0.60;;;0.60;;
595;SDS011;19946;49.306;11.350;2023-08-21T06:14:01;0.60;;;0.60;;
595;SDS011;19946;49.306;11.350;2023-08-21T06:17:02;0.60;;;0.60;;
595;SDS011;19946;49.306;11.350;2023-08-21T06:20:04;0.70;;;0.70;;
595;SDS011;19946;49.306;11.350;2023-08-21T06:23:06;0.70;;;0.70;;
595;SDS011;19946;49.306;11.350;2023-08-21T06:26:06;0.70;;;0.70;;
595;SDS011;19946;49.306;11.350;2023-08-21T06:29:06;0.80;;;0.80;;
595;SDS011;19946;49.306;11.350;2023-08-21T06:32:07;0.90;;;0.90;;
595;SDS011;19946;49.306;11.350;2023-08-21T06:35:07;1.20;;;1.20;;
595;SDS011;19946;49.306;11.350;2023-08-21T06:38:08;1.00;;;1.00;;
595;SDS011;19946;49.306;11.350;2023-08-21T06:41:08;1.00;;;1.00;;
595;SDS011;19946;49.306;11.350;2023-08-21T06:44:09;0.90;;;0.90;;
595;SDS011;19946;49.306;11.350;2023-08-21T06:47:09;0.90;;;0.90;;
595;SDS011;19946;49.306;11.350;2023-08-21T06:50:10;0.70;;;0.70;;
595;SDS011;19946;49.306;11.350;2023-08-21T06:53:10;0.50;;;0.50;;
595;SDS011;19946;49.306;11.350;2023-08-21T06:56:10;0.73;;;0.73;;
595;SDS011;19946;49.306;11.350;2023-08-21T06:59:11;0.73;;;0.73;;
595;SDS011;19946;49.306;11.350;2023-08-21T07:02:11;0.80;;;0.80;;
595;SDS011;19946;49.306;11.350;2023-08-21T07:05:11;0.90;;;0.90;;
595;SDS011;19946;49.306;11.350;2023-08-21T07:08:12;0.80;;;0.80;;
595;SDS011;19946;49.306;11.350;2023-08-21T07:11:12;0.60;;;0.60;;
595;SDS011;19946;49.306;11.350;2023-08-21T07:14:13;0.80;;;0.77;;
595;SDS011;19946;49.306;11.350;2023-08-21T07:17:14;0.80;;;0.80;;
595;SDS011;19946;49.306;11.350;2023-08-21T07:20:14;1.50;;;1.50;;
595;SDS011;19946;49.306;11.350;2023-08-21T07:23:14;1.10;;;1.10;;
595;SDS011;19946;49.306;11.350;2023-08-21T07:26:14;0.87;;;0.87;;
595;SDS011;19946;49.306;11.350;2023-08-21T07:29:15;0.87;;;0.87;;
595;SDS011;19946;49.306;11.350;2023-08-21T07:32:15;0.93;;;0.93;;
595;SDS011;19946;49.306;11.350;2023-08-21T07:35:15;1.60;;;1.50;;
595;SDS011;19946;49.306;11.350;2023-08-21T07:38:16;1.30;;;1.30;;
595;SDS011;19946;49.306;11.350;2023-08-21T07:41:16;0.90;;;0.90;;
595;SDS011;19946;49.306;11.350;2023-08-21T07:44:16;1.03;;;1.03;;
595;SDS011;19946;49.306;11.350;2023-08-21T07:47:17;1.10;;;1.10;;
595;SDS011;19946;49.306;11.350;2023-08-21T07:50:17;0.90;;;0.90;;
595;SDS011;19946;49.306;11.350;2023-08-21T07:53:17;1.07;;;1.07;;
595;SDS011;19946;49.306;11.350;2023-08-21T07:56:18;1.17;;;1.17;;
595;SDS011;19946;49.306;11.350;2023-08-21T07:59:18;0.90;;;0.90;;
595;SDS011;19946;49.306;11.350;2023-08-21T08:02:19;1.20;;;1.20;;
595;SDS011;19946;49.306;11.350;2023-08-21T08:05:20;0.97;;;0.97;;
595;SDS011;19946;49.306;11.350;2023-08-21T08:08:20;1.00;;;1.00;;
595;SDS011;19946;49.306;11.350;2023-08-21T08:11:20;0.97;;;0.97;;
595;SDS011;19946;49.306;11.350;2023-08-21T08:14:21;2.83;;;1.60;;
595;SDS011;19946;49.306;11.350;2023-08-21T08:17:21;1.00;;;1.00;;
595;SDS011;19946;49.306;11.350;2023-08-21T08:20:22;1.10;;;1.10;;
595;SDS011;19946;49.306;11.350;2023-08-21T08:23:22;1.10;;;1.10;;
595;SDS011;19946;49.306;11.350;2023-08-21T08:26:23;1.00;;;1.00;;
595;SDS011;19946;49.306;11.350;2023-08-21T08:29:23;1.13;;;1.13;;
595;SDS011;19946;49.306;11.350;2023-08-21T08:32:25;1.73;;;1.70;;
595;SDS011;19946;49.306;11.350;2023-08-21T08:35:25;1.53;;;1.50;;
595;SDS011;19946;49.306;11.350;2023-08-21T08:38:26;1.53;;;1.50;;
595;SDS011;19946;49.306;11.350;2023-08-21T08:41:43;2.03;;;1.90;;
595;SDS011;19946;49.306;11.350;2023-08-21T08:44:48;1.30;;;1.30;;
595;SDS011;19946;49.306;11.350;2023-08-21T08:47:49;1.60;;;1.57;;
595;SDS011;19946;49.306;11.350;2023-08-21T08:50:50;1.63;;;1.53;;
595;SDS011;19946;49.306;11.350;2023-08-21T08:53:51;4.60;;;2.10;;
595;SDS011;19946;49.306;11.350;2023-08-21T08:56:51;1.03;;;1.03;;
595;SDS011;19946;49.306;11.350;2023-08-21T08:59:51;1.23;;;1.23;;
595;SDS011;19946;49.306;11.350;2023-08-21T09:02:52;1.10;;;1.10;;
595;SDS011;19946;49.306;11.350;2023-08-21T09:05:52;1.37;;;1.30;;
595;SDS011;19946;49.306;11.350;2023-08-21T09:08:53;1.20;;;1.20;;
595;SDS011;19946;49.306;11.350;2023-08-21T09:11:57;1.03;;;1.03;;
595;SDS011;19946;49.306;11.350;2023-08-21T09:14:57;1.27;;;1.23;;
595;SDS011;19946;49.306;11.350;2023-08-21T09:17:59;1.30;;;1.23;;
595;SDS011;19946;49.306;11.350;2023-08-21T09:21:01;1.20;;;1.13;;
595;SDS011;19946;49.306;11.350;2023-08-21T09:24:02;1.23;;;1.17;;
595;SDS011;19946;49.306;11.350;2023-08-21T09:27:15;2.40;;;1.37;;
595;SDS011;19946;49.306;11.350;2023-08-21T09:30:16;0.77;;;0.77;;
595;SDS011;19946;49.306;11.350;2023-08-21T09:33:17;2.30;;;1.60;;
595;SDS011;19946;49.306;11.350;2023-08-21T09:36:19;1.40;;;0.90;;
595;SDS011;19946;49.306;11.350;2023-08-21T09:39:19;1.23;;;0.97;;
595;SDS011;19946;49.306;11.350;2023-08-21T09:42:19;1.70;;;1.10;;
595;SDS011;19946;49.306;11.350;2023-08-21T09:45:23;2.17;;;1.20;;
595;SDS011;19946;49.306;11.350;2023-08-21T09:48:25;1.03;;;0.90;;
595;SDS011;19946;49.306;11.350;2023-08-21T09:51:29;0.73;;;0.73;;
595;SDS011;19946;49.306;11.350;2023-08-21T09:54:31;2.57;;;1.37;;
595;SDS011;19946;49.306;11.350;2023-08-21T09:57:33;0.73;;;0.73;;
595;SDS011;19946;49.306;11.350;2023-08-21T10:00:35;0.67;;;0.67;;
595;SDS011;19946;49.306;11.350;2023-08-21T10:03:41;1.73;;;1.10;;
595;SDS011;19946;49.306;11.350;2023-08-21T10:06:45;1.00;;;1.00;;
595;SDS011;19946;49.306;11.350;2023-08-21T10:09:47;3.20;;;1.23;;
595;SDS011;19946;49.306;11.350;2023-08-21T10:12:48;2.53;;;1.00;;
595;SDS011;19946;49.306;11.350;2023-08-21T10:15:49;2.30;;;1.37;;
595;SDS011;19946;49.306;11.350;2023-08-21T10:18:49;0.77;;;0.77;;
595;SDS011;19946;49.306;11.350;2023-08-21T10:21:49;1.80;;;1.33;;
595;SDS011;19946;49.306;11.350;2023-08-21T10:24:50;0.77;;;0.73;;
595;SDS011;19946;49.306;11.350;2023-08-21T10:27:53;1.17;;;0.80;;
595;SDS011;19946;49.306;11.350;2023-08-21T10:31:05;1.33;;;0.73;;
595;SDS011;19946;49.306;11.350;2023-08-21T10:34:38;1.40;;;1.00;;
595;SDS011;19946;49.306;11.350;2023-08-21T10:37:50;1.20;;;0.90;;
595;SDS011;19946;49.306;11.350;2023-08-21T10:41:10;1.40;;;0.87;;
595;SDS011;19946;49.306;11.350;2023-08-21T10:44:10;1.70;;;0.97;;
595;SDS011;19946;49.306;11.350;2023-08-21T10:47:15;2.03;;;1.30;;
595;SDS011;19946;49.306;11.350;2023-08-21T10:50:17;1.73;;;1.03;;
595;SDS011;19946;49.306;11.350;2023-08-21T10:53:18;0.97;;;0.93;;
595;SDS011;19946;49.306;11.350;2023-08-21T10:56:18;0.80;;;0.57;;
595;SDS011;19946;49.306;11.350;2023-08-21T10:59:18;0.57;;;0.57;;
595;SDS011;19946;49.306;11.350;2023-08-21T11:02:19;3.27;;;1.33;;
595;SDS011;19946;49.306;11.350;2023-08-21T11:05:19;3.50;;;1.17;;
595;SDS011;19946;49.306;11.350;2023-08-21T11:08:19;2.60;;;0.90;;
595;SDS011;19946;49.306;11.350;2023-08-21T11:11:20;3.20;;;0.97;;
595;SDS011;19946;49.306;11.350;2023-08-21T11:14:25;6.50;;;1.80;;
595;SDS011;19946;49.306;11.350;2023-08-21T11:17:26;1.40;;;0.90;;
595;SDS011;19946;49.306;11.350;2023-08-21T11:20:32;1.43;;;1.07;;
595;SDS011;19946;49.306;11.350;2023-08-21T11:23:35;2.67;;;1.37;;
595;SDS011;19946;49.306;11.350;2023-08-21T11:26:37;0.87;;;0.70;;
595;SDS011;19946;49.306;11.350;2023-08-21T11:29:55;3.40;;;0.90;;
595;SDS011;19946;49.306;11.350;2023-08-21T11:33:08;2.23;;;1.00;;
595;SDS011;19946;49.306;11.350;2023-08-21T11:36:10;5.20;;;1.70;;
595;SDS011;19946;49.306;11.350;2023-08-21T11:39:10;1.57;;;0.80;;
595;SDS011;19946;49.306;11.350;2023-08-21T11:42:12;1.13;;;1.00;;
595;SDS011;19946;49.306;11.350;2023-08-21T11:45:13;2.20;;;0.93;;
595;SDS011;19946;49.306;11.350;2023-08-21T11:48:14;2.97;;;1.20;;
595;SDS011;19946;49.306;11.350;2023-08-21T11:51:14;6.53;;;1.63;;
595;SDS011;19946;49.306;11.350;2023-08-21T11:54:16;2.97;;;1.10;;
595;SDS011;19946;49.306;11.350;2023-08-21T11:57:17;0.37;;;0.37;;
595;SDS011;19946;49.306;11.350;2023-08-21T12:00:19;2.30;;;1.00;;
595;SDS011;19946;49.306;11.350;2023-08-21T12:03:26;3.73;;;1.17;;
595;SDS011;19946;49.306;11.350;2023-08-21T12:06:27;1.60;;;0.83;;
595;SDS011;19946;49.306;11.350;2023-08-21T12:09:32;0.40;;;0.40;;
595;SDS011;19946;49.306;11.350;2023-08-21T12:12:32;0.67;;;0.50;;
595;SDS011;19946;49.306;11.350;2023-08-21T12:15:32;1.97;;;0.87;;
595;SDS011;19946;49.306;11.350;2023-08-21T12:18:34;1.43;;;0.87;;
595;SDS011;19946;49.306;11.350;2023-08-21T12:21:34;0.57;;;0.47;;
595;SDS011;19946;49.306;11.350;2023-08-21T12:24:36;1.30;;;0.90;;
595;SDS011;19946;49.306;11.350;2023-08-21T12:27:37;1.10;;;0.57;;
595;SDS011;19946;49.306;11.350;2023-08-21T12:30:37;2.40;;;0.80;;
595;SDS011;19946;49.306;11.350;2023-08-21T12:33:37;1.90;;;0.73;;
595;SDS011;19946;49.306;11.350;2023-08-21T12:36:38;4.60;;;1.03;;
595;SDS011;19946;49.306;11.350;2023-08-21T12:39:38;0.57;;;0.40;;
595;SDS011;19946;49.306;11.350;2023-08-21T12:42:38;3.10;;;1.10;;
595;SDS011;19946;49.306;11.350;2023-08-21T12:45:39;2.83;;;1.20;;
595;SDS011;19946;49.306;11.350;2023-08-21T12:48:39;2.07;;;0.93;;
595;SDS011;19946;49.306;11.350;2023-08-21T12:51:39;0.90;;;0.63;;
595;SDS011;19946;49.306;11.350;2023-08-21T12:54:40;0.60;;;0.53;;
595;SDS011;19946;49.306;11.350;2023-08-21T12:57:40;2.03;;;0.80;;
595;SDS011;19946;49.306;11.350;2023-08-21T13:00:40;1.00;;;0.73;;
595;SDS011;19946;49.306;11.350;2023-08-21T13:03:44;0.90;;;0.60;;
595;SDS011;19946;49.306;11.350;2023-08-21T13:06:46;1.30;;;0.70;;
595;SDS011;19946;49.306;11.350;2023-08-21T13:09:46;1.27;;;0.73;;
595;SDS011;19946;49.306;11.350;2023-08-21T13:12:46;0.30;;;0.30;;
595;SDS011;19946;49.306;11.350;2023-08-21T13:15:47;2.23;;;1.00;;
595;SDS011;19946;49.306;11.350;2023-08-21T13:18:47;0.67;;;0.43;;
595;SDS011;19946;49.306;11.350;2023-08-21T13:21:47;2.17;;;0.93;;
595;SDS011;19946;49.306;11.350;2023-08-21T13:24:48;0.47;;;0.43;;
595;SDS011;19946;49.306;11.350;2023-08-21T13:27:48;0.77;;;0.50;;
595;SDS011;19946;49.306;11.350;2023-08-21T13:30:49;1.67;;;0.67;;
595;SDS011;19946;49.306;11.350;2023-08-21T13:33:50;1.00;;;0.50;;
595;SDS011;19946;49.306;11.350;2023-08-21T13:36:50;1.27;;;0.60;;
595;SDS011;19946;49.306;11.350;2023-08-21T13:39:51;0.30;;;0.30;;
595;SDS011;19946;49.306;11.350;2023-08-21T13:42:51;0.80;;;0.63;;
595;SDS011;19946;49.306;11.350;2023-08-21T13:45:52;0.47;;;0.40;;
595;SDS011;19946;49.306;11.350;2023-08-21T13:48:52;0.90;;;0.57;;
595;SDS011;19946;49.306;11.350;2023-08-21T13:51:53;0.53;;;0.47;;
595;SDS011;19946;49.306;11.350;2023-08-21T13:54:53;2.40;;;0.70;;
595;SDS011;19946;49.306;11.350;2023-08-21T13:57:53;1.77;;;0.60;;
595;SDS011;19946;49.306;11.350;2023-08-21T14:00:54;1.50;;;0.50;;
595;SDS011;19946;49.306;11.350;2023-08-21T14:03:55;2.60;;;0.80;;
595;SDS011;19946;49.306;11.350;2023-08-21T14:06:56;0.93;;;0.70;;
595;SDS011;19946;49.306;11.350;2023-08-21T14:09:56;0.40;;;0.40;;
595;SDS011;19946;49.306;11.350;2023-08-21T14:12:56;1.40;;;0.63;;
595;SDS011;19946;49.306;11.350;2023-08-21T14:15:57;2.63;;;0.97;;
595;SDS011;19946;49.306;11.350;2023-08-21T14:18:57;2.67;;;1.00;;
595;SDS011;19946;49.306;11.350;2023-08-21T14:21:58;3.20;;;1.10;;
595;SDS011;19946;49.306;11.350;2023-08-21T14:24:59;6.17;;;1.67;;
595;SDS011;19946;49.306;11.350;2023-08-21T14:27:59;1.77;;;0.73;;
595;SDS011;19946;49.306;11.350;2023-08-21T14:30:59;1.73;;;0.70;;
595;SDS011;19946;49.306;11.350;2023-08-21T14:33:59;3.67;;;1.10;;
595;SDS011;19946;49.306;11.350;2023-08-21T14:37:00;2.20;;;0.70;;
595;SDS011;19946;49.306;11.350;2023-08-21T14:40:00;3.33;;;1.07;;
595;SDS011;19946;49.306;11.350;2023-08-21T14:43:01;0.87;;;0.67;;
595;SDS011;19946;49.306;11.350;2023-08-21T14:46:01;0.63;;;0.60;;
595;SDS011;19946;49.306;11.350;2023-08-21T14:49:02;0.40;;;0.37;;
595;SDS011;19946;49.306;11.350;2023-08-21T14:52:03;1.63;;;0.77;;
595;SDS011;19946;49.306;11.350;2023-08-21T14:55:03;3.17;;;1.00;;
595;SDS011;19946;49.306;11.350;2023-08-21T14:58:04;0.80;;;0.80;;
595;SDS011;19946;49.306;11.350;2023-08-21T15:01:07;2.10;;;1.00;;
595;SDS011;19946;49.306;11.350;2023-08-21T15:04:07;0.50;;;0.50;;
595;SDS011;19946;49.306;11.350;2023-08-21T15:07:07;1.77;;;1.00;;
595;SDS011;19946;49.306;11.350;2023-08-21T15:10:09;1.67;;;0.87;;
595;SDS011;19946;49.306;11.350;2023-08-21T15:13:10;0.73;;;0.40;;
595;SDS011;19946;49.306;11.350;2023-08-21T15:16:10;0.50;;;0.40;;
595;SDS011;19946;49.306;11.350;2023-08-21T15:19:10;0.40;;;0.40;;
595;SDS011;19946;49.306;11.350;2023-08-21T15:22:10;1.77;;;0.77;;
595;SDS011;19946;49.306;11.350;2023-08-21T15:25:11;3.73;;;1.13;;
595;SDS011;19946;49.306;11.350;2023-08-21T15:28:11;2.37;;;0.90;;
595;SDS011;19946;49.306;11.350;2023-08-21T15:31:12;1.03;;;0.63;;
595;SDS011;19946;49.306;11.350;2023-08-21T15:34:12;1.37;;;0.80;;
595;SDS011;19946;49.306;11.350;2023-08-21T15:37:12;0.90;;;0.60;;
595;SDS011;19946;49.306;11.350;2023-08-21T15:40:13;1.27;;;0.97;;
595;SDS011;19946;49.306;11.350;2023-08-21T15:43:13;0.30;;;0.27;;
595;SDS011;19946;49.306;11.350;2023-08-21T15:46:13;2.33;;;0.90;;
595;SDS011;19946;49.306;11.350;2023-08-21T15:49:14;3.43;;;0.80;;
595;SDS011;19946;49.306;11.350;2023-08-21T15:52:14;1.87;;;0.80;;
595;SDS011;19946;49.306;11.350;2023-08-21T15:55:14;4.53;;;1.20;;
595;SDS011;19946;49.306;11.350;2023-08-21T15:58:16;3.07;;;0.90;;
595;SDS011;19946;49.306;11.350;2023-08-21T16:01:16;5.10;;;1.67;;
595;SDS011;19946;49.306;11.350;2023-08-21T16:04:17;1.67;;;0.90;;
595;SDS011;19946;49.306;11.350;2023-08-21T16:07:18;2.87;;;1.00;;
595;SDS011;19946;49.306;11.350;2023-08-21T16:10:18;2.67;;;0.97;;
595;SDS011;19946;49.306;11.350;2023-08-21T16:13:18;0.57;;;0.47;;
595;SDS011;19946;49.306;11.350;2023-08-21T16:16:19;1.43;;;0.73;;
595;SDS011;19946;49.306;11.350;2023-08-21T16:19:19;3.77;;;1.00;;
595;SDS011;19946;49.306;11.350;2023-08-21T16:22:19;2.57;;;0.97;;
595;SDS011;19946;49.306;11.350;2023-08-21T16:25:20;3.10;;;1.17;;
595;SDS011;19946;49.306;11.350;2023-08-21T16:28:20;3.07;;;1.00;;
595;SDS011;19946;49.306;11.350;2023-08-21T16:31:21;0.57;;;0.53;;
595;SDS011;19946;49.306;11.350;2023-08-21T16:34:21;1.77;;;0.70;;
595;SDS011;19946;49.306;11.350;2023-08-21T16:37:21;1.87;;;0.87;;
595;SDS011;19946;49.306;11.350;2023-08-21T16:40:22;0.40;;;0.37;;
595;SDS011;19946;49.306;11.350;2023-08-21T16:43:24;1.43;;;0.77;;
595;SDS011;19946;49.306;11.350;2023-08-21T16:46:24;0.83;;;0.47;;
595;SDS011;19946;49.306;11.350;2023-08-21T16:49:25;1.70;;;0.90;;
595;SDS011;19946;49.306;11.350;2023-08-21T16:52:25;3.30;;;0.90;;
595;SDS011;19946;49.306;11.350;2023-08-21T16:55:25;0.47;;;0.40;;
595;SDS011;19946;49.306;11.350;2023-08-21T16:58:26;0.23;;;0.23;;
595;SDS011;19946;49.306;11.350;2023-08-21T17:01:27;1.80;;;0.80;;
595;SDS011;19946;49.306;11.350;2023-08-21T17:04:27;1.70;;;0.77;;
595;SDS011;19946;49.306;11.350;2023-08-21T17:07:27;1.43;;;0.70;;
595;SDS011;19946;49.306;11.350;2023-08-21T17:10:28;5.20;;;0.73;;
595;SDS011;19946;49.306;11.350;2023-08-21T17:13:28;0.83;;;0.53;;
595;SDS011;19946;49.306;11.350;2023-08-21T17:16:29;0.20;;;0.20;;
595;SDS011;19946;49.306;11.350;2023-08-21T17:19:29;0.20;;;0.20;;
595;SDS011;19946;49.306;11.350;2023-08-21T17:22:29;0.63;;;0.57;;
595;SDS011;19946;49.306;11.350;2023-08-21T17:25:30;0.93;;;0.73;;
595;SDS011;19946;49.306;11.350;2023-08-21T17:28:30;1.07;;;0.87;;
595;SDS011;19946;49.306;11.350;2023-08-21T17:31:30;0.30;;;0.30;;
595;SDS011;19946;49.306;11.350;2023-08-21T17:34:31;0.50;;;0.50;;
595;SDS011;19946;49.306;11.350;2023-08-21T17:37:31;0.37;;;0.37;;
595;SDS011;19946;49.306;11.350;2023-08-21T17:40:32;0.53;;;0.50;;
595;SDS011;19946;49.306;11.350;2023-08-21T17:43:32;0.20;;;0.20;;
595;SDS011;19946;49.306;11.350;2023-08-21T17:46:32;0.70;;;0.47;;
595;SDS011;19946;49.306;11.350;2023-08-21T17:49:32;0.40;;;0.40;;
595;SDS011;19946;49.306;11.350;2023-08-21T17:52:33;0.50;;;0.50;;
595;SDS011;19946;49.306;11.350;2023-08-21T17:55:33;0.40;;;0.40;;
595;SDS011;19946;49.306;11.350;2023-08-21T17:58:34;0.43;;;0.37;;
595;SDS011;19946;49.306;11.350;2023-08-21T18:01:35;0.30;;;0.30;;
595;SDS011;19946;49.306;11.350;2023-08-21T18:04:35;1.70;;;0.43;;
595;SDS011;19946;49.306;11.350;2023-08-21T18:07:35;0.40;;;0.27;;
595;SDS011;19946;49.306;11.350;2023-08-21T18:10:36;0.17;;;0.17;;
595;SDS011;19946;49.306;11.350;2023-08-21T18:13:36;0.37;;;0.37;;
595;SDS011;19946;49.306;11.350;2023-08-21T18:16:37;1.90;;;0.60;;
595;SDS011;19946;49.306;11.350;2023-08-21T18:19:37;0.20;;;0.20;;
595;SDS011;19946;49.306;11.350;2023-08-21T18:22:37;0.20;;;0.17;;
595;SDS011;19946;49.306;11.350;2023-08-21T18:25:38;0.43;;;0.23;;
595;SDS011;19946;49.306;11.350;2023-08-21T18:28:38;0.17;;;0.17;;
595;SDS011;19946;49.306;11.350;2023-08-21T18:31:38;1.40;;;0.53;;
595;SDS011;19946;49.306;11.350;2023-08-21T18:34:39;2.63;;;1.03;;